Time;durP1;ratioP1;P1;durP2;ratioP2;P2;SDS_P1;SDS_P2;PMS_P1;PMS_P2;Temp;Humidity;BMP_temperature;BMP_pressure;BME280_temperature;BME280_humidity;BME280_pressure;Samples;Min_cycle;Max_cycle;Signal;HPM_P1;HPM_P2
2023/05/16 00:00:20;;;;;;;8.13;3.20;;;10.50;99.90;;;;;;4994234;28;20088;-49
2023/05/16 00:02:46;;;;;;;8.10;3.63;;;10.50;99.90;;;;;;4993824;28;20030;-48
2023/05/16 00:05:15;;;;;;;9.67;3.63;;;10.50;99.90;;;;;;4993890;28;20030;-50
2023/05/16 00:07:46;;;;;;;9.40;4.40;;;10.50;99.90;;;;;;4994380;28;20038;-50
2023/05/16 00:10:12;;;;;;;11.30;4.83;;;10.50;99.90;;;;;;4993888;28;20027;-51
2023/05/16 00:12:38;;;;;;;6.00;3.10;;;10.40;99.90;;;;;;4993863;28;20045;-49
2023/05/16 00:15:07;;;;;;;4.90;2.23;;;10.40;99.90;;;;;;4994060;28;20476;-52
2023/05/16 00:17:34;;;;;;;7.15;2.58;;;10.30;99.90;;;;;;4993909;28;20510;-50
2023/05/16 00:20:09;;;;;;;4.67;2.30;;;10.30;99.90;;;;;;4993802;28;20089;-50
2023/05/16 00:22:36;;;;;;;5.43;2.60;;;10.30;99.90;;;;;;4993613;28;20026;-49
2023/05/16 00:25:02;;;;;;;5.97;2.50;;;10.30;99.90;;;;;;4994046;28;20360;-52
2023/05/16 00:27:28;;;;;;;3.87;2.20;;;10.20;99.90;;;;;;4993808;28;20489;-51
2023/05/16 00:29:55;;;;;;;7.47;2.43;;;10.20;99.90;;;;;;4992412;28;20121;-50
2023/05/16 00:32:21;;;;;;;6.80;2.40;;;10.20;99.90;;;;;;4992472;28;20553;-50
2023/05/16 00:34:46;;;;;;;5.60;2.90;;;10.10;99.90;;;;;;4993730;28;20058;-48
2023/05/16 00:37:13;;;;;;;7.30;2.20;;;10.10;99.90;;;;;;4992418;28;20513;-48
2023/05/16 00:39:39;;;;;;;8.03;3.53;;;10.00;99.90;;;;;;4993630;28;20038;-49
2023/05/16 00:42:05;;;;;;;6.27;2.93;;;10.00;99.90;;;;;;4993028;28;20045;-49
2023/05/16 00:44:30;;;;;;;6.93;2.70;;;9.90;99.90;;;;;;4993420;28;20023;-48
2023/05/16 00:46:57;;;;;;;4.63;2.13;;;9.90;99.90;;;;;;4993311;28;20368;-51
2023/05/16 00:49:23;;;;;;;5.60;2.30;;;9.80;99.90;;;;;;4992230;28;20038;-52
2023/05/16 00:51:50;;;;;;;6.37;2.40;;;9.80;99.90;;;;;;4991623;28;20034;-49
2023/05/16 00:54:17;;;;;;;3.63;2.10;;;9.80;99.90;;;;;;4991892;28;20080;-50
2023/05/16 00:56:43;;;;;;;5.00;2.00;;;9.80;99.90;;;;;;4992052;28;20034;-52
2023/05/16 00:59:09;;;;;;;8.70;2.80;;;9.70;99.90;;;;;;4993110;28;20026;-50
2023/05/16 01:01:36;;;;;;;5.40;1.93;;;9.80;99.90;;;;;;4992662;28;20122;-51
2023/05/16 01:04:02;;;;;;;6.47;2.30;;;9.70;99.90;;;;;;4993137;28;20034;-53
2023/05/16 01:06:28;;;;;;;3.93;1.77;;;9.70;99.90;;;;;;4991587;28;20038;-51
2023/05/16 01:08:54;;;;;;;5.63;1.93;;;9.70;99.90;;;;;;4993029;28;20113;-50
2023/05/16 01:11:28;;;;;;;4.03;1.77;;;9.60;99.90;;;;;;4992720;28;20108;-50
2023/05/16 01:14:01;;;;;;;3.97;1.67;;;9.60;99.90;;;;;;4991415;28;20030;-49
2023/05/16 01:16:55;;;;;;;4.17;1.60;;;9.50;99.90;;;;;;4992747;28;20045;-49
2023/05/16 01:20:00;;;;;;;3.67;1.30;;;9.50;99.90;;;;;;4991603;28;20100;-51
2023/05/16 01:22:51;;;;;;;4.37;1.50;;;9.50;99.90;;;;;;4962147;28;20407;-51
2023/05/16 01:25:49;;;;;;;3.33;1.33;;;9.40;99.90;;;;;;4992739;28;20038;-54
2023/05/16 01:28:16;;;;;;;4.83;1.57;;;9.40;99.90;;;;;;4993078;28;20379;-50
2023/05/16 01:30:42;;;;;;;4.17;1.77;;;9.40;99.90;;;;;;4992065;28;20472;-50
2023/05/16 01:33:09;;;;;;;6.00;1.63;;;9.40;99.90;;;;;;4992329;28;20030;-49
2023/05/16 01:35:53;;;;;;;3.10;1.70;;;9.40;99.90;;;;;;4991235;28;20030;-50
2023/05/16 01:38:52;;;;;;;3.07;1.50;;;9.30;99.90;;;;;;4974906;28;20030;-49
2023/05/16 01:41:27;;;;;;;6.18;1.67;;;9.30;99.90;;;;;;4982811;28;20061;-50
2023/05/16 01:44:04;;;;;;;9.03;2.60;;;9.30;99.90;;;;;;4991172;28;20434;-52
2023/05/16 01:46:36;;;;;;;4.63;1.50;;;9.30;99.90;;;;;;4992549;28;20425;-48
2023/05/16 01:49:48;;;;;;;5.03;1.90;;;9.30;99.90;;;;;;4992297;28;20030;-49
2023/05/16 01:52:27;;;;;;;6.47;1.70;;;9.30;99.90;;;;;;4915326;29;20039;-49
2023/05/16 01:54:58;;;;;;;3.92;1.67;;;9.30;99.90;;;;;;4931826;29;20110;-50
2023/05/16 01:57:25;;;;;;;4.20;1.50;;;9.20;99.90;;;;;;4970582;28;20045;-50
2023/05/16 01:59:52;;;;;;;4.87;1.73;;;9.20;99.90;;;;;;4990531;28;20030;-49
2023/05/16 02:02:19;;;;;;;5.50;1.50;;;9.20;99.90;;;;;;4991551;28;20030;-50
2023/05/16 02:04:47;;;;;;;5.23;1.70;;;9.20;99.90;;;;;;4992253;28;20026;-49
2023/05/16 02:07:14;;;;;;;5.27;1.40;;;9.20;99.90;;;;;;4991845;28;20058;-49
2023/05/16 02:09:40;;;;;;;6.73;2.23;;;9.20;99.90;;;;;;4990604;28;20034;-49
2023/05/16 02:12:06;;;;;;;5.23;1.93;;;9.20;99.90;;;;;;4991339;28;20104;-48
2023/05/16 02:14:32;;;;;;;6.97;1.93;;;9.20;99.90;;;;;;4990334;28;20486;-49
2023/05/16 02:16:58;;;;;;;4.90;1.80;;;9.10;99.90;;;;;;4990449;28;20026;-49
2023/05/16 02:19:24;;;;;;;10.10;2.20;;;9.10;99.90;;;;;;4991737;28;20065;-50
2023/05/16 02:21:50;;;;;;;4.10;1.37;;;9.20;99.90;;;;;;4990109;28;20379;-49
2023/05/16 02:24:16;;;;;;;4.17;1.70;;;9.10;99.90;;;;;;4991641;28;20467;-50
2023/05/16 02:26:41;;;;;;;5.43;1.50;;;9.10;99.90;;;;;;4991684;28;20104;-47
2023/05/16 02:29:08;;;;;;;4.13;2.00;;;9.10;99.90;;;;;;4990096;28;20113;-48
2023/05/16 02:31:34;;;;;;;5.97;1.70;;;9.10;99.90;;;;;;4991335;28;20069;-48
2023/05/16 02:34:00;;;;;;;6.73;1.70;;;9.10;99.90;;;;;;4991342;28;20038;-48
2023/05/16 02:36:26;;;;;;;4.27;1.53;;;9.10;99.90;;;;;;4991584;28;20034;-52
2023/05/16 02:38:52;;;;;;;7.20;1.40;;;9.10;99.90;;;;;;4991499;28;20073;-48
2023/05/16 02:41:21;;;;;;;5.90;1.85;;;9.10;99.90;;;;;;4991183;28;20403;-48
2023/05/16 02:43:48;;;;;;;6.47;1.50;;;9.10;99.90;;;;;;4991224;28;20030;-48
2023/05/16 02:46:20;;;;;;;5.10;1.87;;;9.10;99.90;;;;;;4991455;28;20026;-51
2023/05/16 02:48:46;;;;;;;4.10;1.60;;;9.10;99.90;;;;;;4991711;28;20145;-48
2023/05/16 02:51:12;;;;;;;9.23;2.17;;;9.10;99.90;;;;;;4991254;28;20493;-49
2023/05/16 02:53:38;;;;;;;6.70;2.00;;;9.00;99.90;;;;;;4991173;28;20030;-51
2023/05/16 02:56:05;;;;;;;6.17;2.23;;;9.00;99.90;;;;;;4993222;28;20038;-53
2023/05/16 02:58:31;;;;;;;8.03;1.87;;;9.00;99.90;;;;;;4994052;28;20034;-49
2023/05/16 03:00:57;;;;;;;4.40;1.50;;;9.00;99.90;;;;;;4994084;28;20081;-49
2023/05/16 03:03:23;;;;;;;6.00;2.13;;;9.00;99.90;;;;;;4994107;28;20150;-48
2023/05/16 03:05:50;;;;;;;7.03;1.90;;;9.00;99.90;;;;;;4994231;28;20502;-51
2023/05/16 03:08:16;;;;;;;9.37;2.23;;;8.90;99.90;;;;;;4994219;28;20172;-50
2023/05/16 03:10:41;;;;;;;6.53;2.00;;;8.90;99.90;;;;;;4993928;28;20129;-49
2023/05/16 03:13:07;;;;;;;6.07;1.80;;;8.90;99.90;;;;;;4995234;28;20157;-48
2023/05/16 03:15:33;;;;;;;7.13;1.40;;;8.90;99.90;;;;;;4994127;28;20041;-50
2023/05/16 03:17:58;;;;;;;6.07;1.43;;;8.80;99.90;;;;;;4994101;28;20030;-50
2023/05/16 03:20:24;;;;;;;9.33;1.90;;;8.80;99.90;;;;;;4994957;28;20026;-49
2023/05/16 03:22:50;;;;;;;4.63;1.33;;;8.80;99.90;;;;;;4993667;28;20037;-50
2023/05/16 03:25:15;;;;;;;8.67;1.37;;;8.70;99.90;;;;;;4994930;28;20022;-50
2023/05/16 03:27:41;;;;;;;4.77;1.20;;;8.80;99.90;;;;;;4994952;28;20031;-50
2023/05/16 03:30:08;;;;;;;9.03;1.80;;;8.80;99.90;;;;;;4994743;28;20097;-51
2023/05/16 03:32:33;;;;;;;8.63;1.50;;;8.70;99.90;;;;;;4994624;28;20027;-49
2023/05/16 03:35:00;;;;;;;6.87;1.40;;;8.70;99.90;;;;;;4994836;28;20030;-48
2023/05/16 03:37:26;;;;;;;4.50;1.20;;;8.60;99.90;;;;;;4993749;28;20558;-49
2023/05/16 03:39:52;;;;;;;5.37;1.30;;;8.70;99.90;;;;;;4995210;28;20030;-48
2023/05/16 03:42:18;;;;;;;5.67;1.33;;;8.60;99.90;;;;;;4992839;28;20108;-49
2023/05/16 03:44:43;;;;;;;6.20;1.47;;;8.50;99.90;;;;;;4994626;28;20058;-50
2023/05/16 03:47:09;;;;;;;6.73;1.60;;;8.50;99.90;;;;;;4994511;28;20023;-51
2023/05/16 03:49:38;;;;;;;5.67;1.70;;;8.60;99.90;;;;;;4994400;28;20090;-50
2023/05/16 03:52:04;;;;;;;5.23;1.10;;;8.50;99.90;;;;;;4993975;28;20035;-49
2023/05/16 03:54:30;;;;;;;4.33;1.00;;;8.50;99.90;;;;;;4994251;28;20457;-51
2023/05/16 03:56:56;;;;;;;10.80;1.43;;;8.50;99.90;;;;;;4994310;28;20169;-51
2023/05/16 03:59:22;;;;;;;8.33;1.37;;;8.40;99.90;;;;;;4994534;28;20117;-48
2023/05/16 04:01:49;;;;;;;8.20;1.23;;;8.40;99.90;;;;;;4993905;28;20404;-48
2023/05/16 04:04:14;;;;;;;3.37;1.07;;;8.40;99.90;;;;;;4994183;28;20454;-49
2023/05/16 04:06:40;;;;;;;6.50;1.20;;;8.40;99.90;;;;;;4993006;28;20030;-49
2023/05/16 04:09:06;;;;;;;6.73;1.40;;;8.40;99.90;;;;;;4994140;28;20034;-49
2023/05/16 04:11:33;;;;;;;8.53;1.13;;;8.40;99.90;;;;;;4993869;28;20045;-50
2023/05/16 04:14:00;;;;;;;4.37;1.00;;;8.40;99.90;;;;;;4993998;28;20038;-49
2023/05/16 04:16:26;;;;;;;4.77;1.30;;;8.30;99.90;;;;;;4994064;28;20038;-50
2023/05/16 04:18:52;;;;;;;5.47;1.10;;;8.30;99.90;;;;;;4993866;28;20061;-50
2023/05/16 04:21:18;;;;;;;6.33;0.80;;;8.30;99.90;;;;;;4993635;28;20064;-48
2023/05/16 04:23:43;;;;;;;6.87;2.03;;;8.20;99.90;;;;;;4993546;28;20026;-49
2023/05/16 04:26:09;;;;;;;3.90;1.23;;;8.30;99.90;;;;;;4992625;28;20030;-49
2023/05/16 04:28:35;;;;;;;6.30;1.53;;;8.30;99.90;;;;;;4993844;28;20026;-49
2023/05/16 04:31:01;;;;;;;9.20;1.30;;;8.30;99.90;;;;;;4993445;28;20076;-49
2023/05/16 04:33:27;;;;;;;11.40;2.23;;;8.30;99.90;;;;;;4993496;28;20434;-48
2023/05/16 04:35:53;;;;;;;4.10;1.03;;;8.30;99.90;;;;;;4993692;28;20031;-51
2023/05/16 04:38:19;;;;;;;4.57;0.90;;;8.40;99.90;;;;;;4993401;28;20045;-49
2023/05/16 04:40:45;;;;;;;6.20;1.57;;;8.30;99.90;;;;;;4993210;28;20026;-48
2023/05/16 04:43:11;;;;;;;5.20;0.90;;;8.30;99.90;;;;;;4991990;28;20034;-49
2023/05/16 04:45:36;;;;;;;9.90;1.83;;;8.30;99.90;;;;;;4993417;28;20049;-48
2023/05/16 04:48:02;;;;;;;5.33;0.90;;;8.30;99.90;;;;;;4993511;28;20030;-52
2023/05/16 04:50:28;;;;;;;5.10;1.20;;;8.30;99.90;;;;;;4993157;28;20403;-49
2023/05/16 04:52:54;;;;;;;8.90;0.90;;;8.40;99.90;;;;;;4992973;28;20027;-48
2023/05/16 04:55:20;;;;;;;8.07;1.43;;;8.40;99.90;;;;;;4993221;28;20038;-52
2023/05/16 04:57:45;;;;;;;5.33;1.73;;;8.40;99.90;;;;;;4993337;28;20394;-50
2023/05/16 05:00:13;;;;;;;5.53;1.23;;;8.40;99.90;;;;;;4993057;28;20049;-50
2023/05/16 05:02:39;;;;;;;5.83;1.30;;;8.40;99.90;;;;;;4993165;28;20037;-49
2023/05/16 05:05:05;;;;;;;4.83;1.07;;;8.50;99.90;;;;;;4993057;28;20026;-48
2023/05/16 05:07:32;;;;;;;7.97;1.17;;;8.50;99.90;;;;;;4991626;28;20096;-51
2023/05/16 05:09:57;;;;;;;3.50;1.00;;;8.50;99.90;;;;;;4992820;28;20038;-50
2023/05/16 05:12:24;;;;;;;7.73;1.40;;;8.50;99.90;;;;;;4992459;28;20127;-49
2023/05/16 05:14:50;;;;;;;5.33;1.00;;;8.50;99.90;;;;;;4992814;28;20085;-50
2023/05/16 05:17:16;;;;;;;8.10;1.30;;;8.50;99.90;;;;;;4992714;28;20030;-48
2023/05/16 05:19:42;;;;;;;4.43;1.00;;;8.60;99.90;;;;;;4992553;28;20049;-48
2023/05/16 05:22:08;;;;;;;5.80;0.93;;;8.60;99.90;;;;;;4992180;28;20034;-48
2023/05/16 05:24:33;;;;;;;6.93;0.90;;;8.60;99.90;;;;;;4992705;28;20113;-51
2023/05/16 05:26:59;;;;;;;4.90;0.90;;;8.70;99.90;;;;;;4992718;28;20026;-49
2023/05/16 05:29:26;;;;;;;5.23;1.30;;;8.80;99.90;;;;;;4992610;28;20419;-52
2023/05/16 05:31:51;;;;;;;6.13;1.00;;;8.80;99.90;;;;;;4992230;28;20100;-49
2023/05/16 05:34:17;;;;;;;4.30;0.90;;;8.80;99.90;;;;;;4992612;28;20038;-49
2023/05/16 05:36:43;;;;;;;5.50;1.40;;;8.90;99.90;;;;;;4992300;28;20568;-50
2023/05/16 05:39:09;;;;;;;7.80;1.30;;;9.00;99.90;;;;;;4992201;28;20066;-49
2023/05/16 05:41:36;;;;;;;7.00;1.33;;;9.00;99.90;;;;;;4992029;28;20042;-48
2023/05/16 05:44:02;;;;;;;5.33;1.40;;;9.10;99.90;;;;;;4992191;28;20084;-49
2023/05/16 05:46:28;;;;;;;4.33;0.90;;;9.20;99.90;;;;;;4992430;28;20030;-51
2023/05/16 05:48:54;;;;;;;5.43;1.00;;;9.30;99.90;;;;;;4992264;28;20095;-48
2023/05/16 05:51:20;;;;;;;7.27;1.40;;;9.30;99.90;;;;;;4991931;28;20114;-48
2023/05/16 05:53:46;;;;;;;5.70;1.23;;;9.40;99.90;;;;;;4991865;28;20402;-49
2023/05/16 05:56:11;;;;;;;3.17;1.03;;;9.50;99.90;;;;;;4990933;28;20045;-50
2023/05/16 05:58:38;;;;;;;7.03;1.23;;;9.60;99.90;;;;;;4992079;28;20038;-48
2023/05/16 06:01:03;;;;;;;4.03;1.07;;;9.60;99.90;;;;;;4991875;28;20395;-49
2023/05/16 06:03:29;;;;;;;6.80;1.43;;;9.60;99.90;;;;;;4991711;28;20041;-49
2023/05/16 06:05:55;;;;;;;4.80;0.97;;;9.70;99.90;;;;;;4991940;28;20097;-48
2023/05/16 06:08:20;;;;;;;5.03;1.37;;;9.80;99.90;;;;;;4991831;28;20085;-48
2023/05/16 06:10:46;;;;;;;5.43;1.20;;;9.90;99.90;;;;;;4991791;28;20058;-48
2023/05/16 06:13:12;;;;;;;3.83;1.10;;;10.10;99.90;;;;;;4991663;28;20030;-50
2023/05/16 06:15:38;;;;;;;7.37;1.23;;;10.20;99.90;;;;;;4991760;28;20406;-49
2023/05/16 06:18:03;;;;;;;5.63;0.90;;;10.30;99.90;;;;;;4991687;28;20034;-50
2023/05/16 06:20:29;;;;;;;4.87;0.87;;;10.40;99.90;;;;;;4991720;28;20030;-49
2023/05/16 06:22:55;;;;;;;8.93;1.10;;;10.50;99.90;;;;;;4991741;28;20033;-49
2023/05/16 06:25:21;;;;;;;5.40;1.40;;;10.50;99.90;;;;;;4991994;28;20037;-48
2023/05/16 06:27:47;;;;;;;8.37;1.40;;;10.60;99.90;;;;;;4991826;28;20031;-50
2023/05/16 06:30:12;;;;;;;8.10;1.37;;;10.60;99.90;;;;;;4991068;28;20026;-48
2023/05/16 06:32:40;;;;;;;2.77;0.90;;;10.70;99.90;;;;;;4991412;28;20494;-49
2023/05/16 06:35:07;;;;;;;3.87;0.90;;;10.80;99.90;;;;;;4991777;28;21032;-50
2023/05/16 06:37:33;;;;;;;5.07;1.30;;;10.90;99.90;;;;;;4991552;28;20034;-50
2023/05/16 06:39:59;;;;;;;5.97;1.23;;;10.80;99.90;;;;;;4991750;28;20034;-49
2023/05/16 06:42:25;;;;;;;3.77;1.03;;;11.00;99.90;;;;;;4991463;28;20467;-49
2023/05/16 06:44:50;;;;;;;5.07;1.00;;;11.00;99.90;;;;;;4991675;28;20030;-52
2023/05/16 06:47:16;;;;;;;3.70;0.97;;;11.00;99.90;;;;;;4991534;28;20030;-48
2023/05/16 06:49:42;;;;;;;5.93;0.97;;;11.10;99.90;;;;;;4991429;28;20048;-52
2023/05/16 06:52:07;;;;;;;6.30;1.63;;;11.20;99.90;;;;;;4990805;28;20040;-50
2023/05/16 06:54:33;;;;;;;5.90;1.10;;;11.10;99.90;;;;;;4991366;28;20035;-51
2023/05/16 06:56:59;;;;;;;2.83;1.00;;;11.10;99.90;;;;;;4991364;28;20057;-49
2023/05/16 06:59:25;;;;;;;5.53;1.00;;;11.10;99.90;;;;;;4991120;28;20444;-49
2023/05/16 07:01:50;;;;;;;5.67;0.80;;;11.20;99.90;;;;;;4990890;28;20022;-52
2023/05/16 07:04:16;;;;;;;5.43;0.80;;;11.20;99.90;;;;;;4991040;28;20372;-49
2023/05/16 07:06:42;;;;;;;4.53;0.97;;;11.20;99.90;;;;;;4991079;28;20030;-50
2023/05/16 07:09:08;;;;;;;4.27;0.70;;;11.10;99.90;;;;;;4991373;28;20105;-48
2023/05/16 07:11:33;;;;;;;6.20;1.20;;;11.20;99.90;;;;;;4990900;28;20041;-48
2023/05/16 07:13:59;;;;;;;4.40;0.73;;;11.30;99.90;;;;;;4991020;28;20031;-49
2023/05/16 07:16:27;;;;;;;3.67;0.90;;;11.40;99.90;;;;;;4991030;28;20034;-48
2023/05/16 07:18:53;;;;;;;6.20;1.10;;;11.50;99.90;;;;;;4991015;28;20042;-48
2023/05/16 07:21:19;;;;;;;2.77;0.60;;;11.50;99.90;;;;;;4990704;28;20090;-50
2023/05/16 07:23:45;;;;;;;6.87;1.10;;;11.50;99.90;;;;;;4991074;28;20117;-51
2023/05/16 07:26:10;;;;;;;3.53;0.80;;;11.60;99.90;;;;;;4991074;28;20041;-51
2023/05/16 07:28:36;;;;;;;4.97;0.90;;;11.70;99.90;;;;;;4991093;28;20034;-50
2023/05/16 07:31:02;;;;;;;4.27;1.40;;;11.70;99.90;;;;;;4989490;28;20066;-49
2023/05/16 07:33:28;;;;;;;3.53;0.93;;;11.90;99.90;;;;;;4991342;28;20391;-48
2023/05/16 07:35:53;;;;;;;2.97;0.73;;;12.10;99.90;;;;;;4991007;28;20030;-51
2023/05/16 07:38:20;;;;;;;8.15;1.10;;;12.30;99.90;;;;;;4990850;28;20035;-50
2023/05/16 07:40:46;;;;;;;3.70;0.90;;;12.20;99.90;;;;;;4991513;28;20027;-50
2023/05/16 07:43:12;;;;;;;3.83;1.00;;;12.30;99.90;;;;;;4994412;28;20555;-50
2023/05/16 07:45:38;;;;;;;4.72;2.05;;;12.40;99.90;;;;;;4994428;28;20026;-49
2023/05/16 07:48:04;;;;;;;2.65;0.82;;;12.60;99.90;;;;;;4994549;28;20041;-50
2023/05/16 07:50:29;;;;;;;3.00;0.73;;;12.70;99.90;;;;;;4994205;28;20030;-49
2023/05/16 07:52:55;;;;;;;7.30;1.23;;;12.80;99.90;;;;;;4994162;28;20030;-50
2023/05/16 07:55:21;;;;;;;3.35;1.00;;;13.00;99.90;;;;;;4994487;28;20022;-53
2023/05/16 07:57:47;;;;;;;4.18;0.70;;;13.10;99.90;;;;;;4994331;28;20395;-48
2023/05/16 08:00:14;;;;;;;3.80;0.80;;;13.10;99.90;;;;;;4993820;28;20034;-49
2023/05/16 08:02:40;;;;;;;3.88;1.00;;;13.00;99.90;;;;;;4994064;28;20026;-50
2023/05/16 08:05:06;;;;;;;4.60;1.90;;;12.90;99.90;;;;;;4993992;28;20034;-48
2023/05/16 08:07:32;;;;;;;3.38;0.90;;;12.80;99.90;;;;;;4994135;28;20030;-48
2023/05/16 08:09:58;;;;;;;8.07;0.98;;;12.80;99.90;;;;;;4993930;28;20036;-49
2023/05/16 08:12:25;;;;;;;7.57;1.50;;;12.80;99.90;;;;;;4993712;28;20036;-49
2023/05/16 08:14:51;;;;;;;7.50;1.02;;;12.80;99.90;;;;;;4993686;28;20038;-52
2023/05/16 08:17:17;;;;;;;5.20;1.30;;;12.90;99.90;;;;;;4992677;28;20038;-48
2023/05/16 08:19:42;;;;;;;2.40;0.80;;;12.90;99.90;;;;;;4993734;28;20034;-49
2023/05/16 08:22:08;;;;;;;2.83;1.13;;;13.00;99.90;;;;;;4993534;28;20030;-50
2023/05/16 08:24:34;;;;;;;4.47;1.50;;;12.90;99.90;;;;;;4994104;28;20023;-49
2023/05/16 08:27:00;;;;;;;7.55;0.95;;;12.80;99.90;;;;;;4993767;28;20026;-48
2023/05/16 08:29:26;;;;;;;6.22;1.33;;;12.60;99.90;;;;;;4993691;28;20081;-49
2023/05/16 08:31:52;;;;;;;5.28;0.93;;;12.50;99.90;;;;;;4993352;28;20069;-49
2023/05/16 08:34:17;;;;;;;4.65;0.90;;;12.40;99.90;;;;;;4993347;28;20034;-52
2023/05/16 08:36:43;;;;;;;3.13;1.10;;;12.30;99.90;;;;;;4993521;28;20030;-50
2023/05/16 08:39:10;;;;;;;5.35;1.55;;;12.30;99.90;;;;;;4993697;28;20688;-50
2023/05/16 08:41:36;;;;;;;3.88;1.25;;;12.10;99.90;;;;;;4993320;28;20451;-48
2023/05/16 08:44:03;;;;;;;6.45;1.23;;;12.00;99.90;;;;;;4993354;28;20023;-48
2023/05/16 08:46:31;;;;;;;2.88;0.82;;;12.00;99.90;;;;;;4993535;28;20530;-50
2023/05/16 08:48:59;;;;;;;3.22;1.25;;;12.10;99.90;;;;;;4993419;28;20069;-51
2023/05/16 08:51:27;;;;;;;2.93;0.80;;;12.30;99.90;;;;;;4993083;28;20123;-48
2023/05/16 08:54:22;;;;;;;2.70;0.88;;;12.40;99.90;;;;;;4992652;28;20054;-48
2023/05/16 08:56:49;;;;;;;2.55;0.68;;;12.60;99.90;;;;;;4980676;28;20104;-49
2023/05/16 08:59:15;;;;;;;2.95;0.90;;;12.90;99.90;;;;;;4993159;28;20080;-50
2023/05/16 09:01:41;;;;;;;3.70;0.70;;;13.10;99.90;;;;;;4992965;28;20023;-50
2023/05/16 09:04:08;;;;;;;2.13;0.70;;;13.00;99.90;;;;;;4993167;28;20526;-48
2023/05/16 09:06:37;;;;;;;3.78;0.70;;;12.90;99.90;;;;;;4992935;28;20034;-48
2023/05/16 09:09:06;;;;;;;2.00;0.60;;;12.80;99.90;;;;;;4993038;28;20395;-48
2023/05/16 09:11:32;;;;;;;;;;;12.60;99.90;;;;;;4993234;28;20049;-48
2023/05/16 09:13:57;;;;;;;3.28;1.23;;;12.50;99.90;;;;;;4993029;28;19914;-51
2023/05/16 09:16:23;;;;;;;5.15;1.52;;;12.50;99.90;;;;;;4993221;28;20034;-53
2023/05/16 09:18:55;;;;;;;3.97;0.95;;;12.50;99.90;;;;;;4992980;28;20041;-50
2023/05/16 09:21:26;;;;;;;4.25;1.10;;;12.60;99.90;;;;;;4992731;28;20054;-53
2023/05/16 09:23:52;;;;;;;4.25;0.88;;;12.70;99.90;;;;;;4992595;28;20399;-49
2023/05/16 09:26:18;;;;;;;4.68;1.08;;;12.70;99.90;;;;;;4992791;28;20038;-49
2023/05/16 09:28:44;;;;;;;5.15;1.40;;;12.80;99.90;;;;;;4992782;28;20038;-48
2023/05/16 09:31:21;;;;;;;3.40;0.85;;;12.80;99.90;;;;;;4992439;28;20022;-49
2023/05/16 09:33:48;;;;;;;7.43;0.98;;;12.80;99.90;;;;;;4992484;28;20383;-50
2023/05/16 09:36:15;;;;;;;3.22;0.70;;;12.90;99.90;;;;;;4992508;28;20085;-50
2023/05/16 09:38:40;;;;;;;1.90;0.77;;;13.20;99.90;;;;;;4992559;28;20483;-53
2023/05/16 09:41:09;;;;;;;2.42;0.65;;;13.50;99.90;;;;;;4992378;28;20037;-51
2023/05/16 09:43:37;;;;;;;6.25;1.20;;;13.60;99.90;;;;;;4992507;28;20027;-52
2023/05/16 09:46:03;;;;;;;4.72;1.13;;;13.60;99.60;;;;;;4992639;28;20180;-49
2023/05/16 09:48:30;;;;;;;6.00;0.80;;;13.60;99.90;;;;;;4992640;28;20114;-49
2023/05/16 09:51:01;;;;;;;2.40;0.50;;;13.50;99.20;;;;;;4992371;28;20066;-50
2023/05/16 09:53:31;;;;;;;1.70;0.50;;;13.40;99.20;;;;;;4992276;28;20042;-53
2023/05/16 09:56:00;;;;;;;4.18;0.50;;;13.20;99.80;;;;;;4992403;28;20107;-51
2023/05/16 09:58:37;;;;;;;2.05;0.75;;;13.00;99.90;;;;;;4992159;28;20045;-49
2023/05/16 10:01:05;;;;;;;3.30;0.60;;;12.90;99.90;;;;;;4992341;28;20032;-51
2023/05/16 10:03:34;;;;;;;3.22;0.77;;;12.90;99.90;;;;;;4991682;28;20031;-51
2023/05/16 10:06:00;;;;;;;3.85;0.75;;;12.90;99.90;;;;;;4991302;28;20372;-49
2023/05/16 10:08:26;;;;;;;3.30;1.08;;;13.00;99.90;;;;;;4992059;28;20026;-49
2023/05/16 10:10:54;;;;;;;5.85;1.20;;;13.30;99.90;;;;;;4991733;28;20061;-49
2023/05/16 10:13:21;;;;;;;5.10;1.40;;;13.70;99.90;;;;;;4991843;28;20042;-49
2023/05/16 10:15:49;;;;;;;2.60;0.70;;;14.00;99.90;;;;;;4991971;28;20062;-49
2023/05/16 10:18:18;;;;;;;3.50;0.80;;;14.00;99.90;;;;;;4991653;28;20085;-51
2023/05/16 10:20:47;;;;;;;1.83;0.93;;;14.00;99.90;;;;;;4991622;28;20033;-49
2023/05/16 10:23:18;;;;;;;5.55;0.88;;;14.00;99.90;;;;;;4991533;28;20037;-50
2023/05/16 10:25:45;;;;;;;2.97;0.80;;;13.90;99.90;;;;;;4991744;28;20027;-53
2023/05/16 10:28:13;;;;;;;3.30;0.65;;;13.80;99.90;;;;;;4991574;28;20039;-49
2023/05/16 10:30:42;;;;;;;2.92;1.08;;;13.70;99.90;;;;;;4991506;28;20037;-49
2023/05/16 10:33:13;;;;;;;3.17;0.65;;;13.70;99.90;;;;;;4991412;28;20034;-51
2023/05/16 10:35:40;;;;;;;3.90;0.68;;;13.60;99.90;;;;;;4991625;28;20030;-51
2023/05/16 10:38:10;;;;;;;6.07;0.90;;;13.40;99.90;;;;;;4991484;28;20501;-51
2023/05/16 10:40:37;;;;;;;4.75;0.70;;;13.50;99.90;;;;;;4991283;28;20030;-53
2023/05/16 10:43:05;;;;;;;1.38;0.60;;;13.90;99.90;;;;;;4991216;28;20035;-53
2023/05/16 10:45:31;;;;;;;3.65;1.02;;;14.10;99.90;;;;;;4991304;28;20018;-49
2023/05/16 10:48:07;;;;;;;3.40;0.63;;;14.40;99.90;;;;;;4991338;28;20493;-52
2023/05/16 10:50:38;;;;;;;4.40;1.00;;;14.30;99.90;;;;;;4991173;28;20628;-49
2023/05/16 10:53:21;;;;;;;1.95;0.73;;;14.20;99.90;;;;;;4991025;28;20030;-50
2023/05/16 10:56:02;;;;;;;1.55;0.40;;;14.20;99.90;;;;;;4991274;28;20035;-49
2023/05/16 10:58:33;;;;;;;2.83;0.65;;;14.20;99.50;;;;;;4991384;28;20038;-49
2023/05/16 11:01:28;;;;;;;0.85;0.30;;;14.20;99.90;;;;;;4990918;28;20430;-52
2023/05/16 11:03:56;;;;;;;1.80;0.50;;;14.40;99.10;;;;;;4991120;28;20035;-50
2023/05/16 11:06:24;;;;;;;4.50;0.70;;;14.50;99.90;;;;;;4991137;28;20116;-52
2023/05/16 11:09:08;;;;;;;0.80;0.40;;;14.60;97.50;;;;;;4991301;28;20074;-50
2023/05/16 11:11:40;;;;;;;1.00;0.50;;;14.80;97.10;;;;;;4991003;28;20034;-52
2023/05/16 11:14:06;;;;;;;2.50;0.50;;;14.70;97.40;;;;;;4990887;28;20117;-49
2023/05/16 11:16:33;;;;;;;1.48;0.45;;;14.70;97.20;;;;;;4993220;28;20030;-49
2023/05/16 11:19:06;;;;;;;2.00;0.40;;;14.80;98.10;;;;;;4994974;28;20041;-50
2023/05/16 11:22:04;;;;;;;1.25;0.40;;;15.10;97.70;;;;;;4994828;28;20033;-51
2023/05/16 11:24:30;;;;;;;2.42;0.50;;;15.40;96.50;;;;;;4994862;28;20467;-53
2023/05/16 11:26:59;;;;;;;2.05;0.40;;;15.70;96.80;;;;;;4994899;28;20031;-53
2023/05/16 11:29:30;;;;;;;1.88;0.57;;;15.70;96.90;;;;;;4994905;28;20442;-49
2023/05/16 11:31:58;;;;;;;1.92;0.70;;;15.60;97.20;;;;;;4994359;28;20152;-50
2023/05/16 11:34:24;;;;;;;1.55;0.60;;;15.30;96.50;;;;;;4994837;28;20030;-53
2023/05/16 11:36:50;;;;;;;4.75;0.55;;;14.90;96.90;;;;;;4994572;28;20505;-49
2023/05/16 11:39:18;;;;;;;2.10;0.70;;;14.50;99.00;;;;;;4994552;28;20030;-50
2023/05/16 11:41:44;;;;;;;2.75;0.50;;;14.10;99.90;;;;;;4994524;28;20026;-50
2023/05/16 11:44:12;;;;;;;3.50;0.75;;;13.80;99.90;;;;;;4994396;28;20080;-51
2023/05/16 11:46:39;;;;;;;3.20;0.57;;;13.60;99.90;;;;;;4994560;28;20046;-50
2023/05/16 11:49:08;;;;;;;2.00;0.47;;;13.40;99.90;;;;;;4994668;28;20036;-50
2023/05/16 11:51:36;;;;;;;2.95;0.50;;;13.20;99.90;;;;;;4994225;28;20044;-49
2023/05/16 11:54:04;;;;;;;1.88;0.85;;;13.00;99.90;;;;;;4994701;28;20426;-51
2023/05/16 11:56:31;;;;;;;2.25;0.63;;;12.90;99.90;;;;;;4994416;28;20035;-53
2023/05/16 11:59:00;;;;;;;2.65;0.73;;;13.00;99.90;;;;;;4994515;28;20027;-50
2023/05/16 12:01:37;;;;;;;2.47;0.63;;;13.30;99.90;;;;;;4993997;28;20110;-50
2023/05/16 12:04:13;;;;;;;1.77;0.57;;;13.60;99.90;;;;;;4994143;28;20030;-50
2023/05/16 12:06:39;;;;;;;2.42;0.70;;;13.70;99.90;;;;;;4994130;28;20034;-50
2023/05/16 12:09:09;;;;;;;2.08;0.85;;;13.80;99.90;;;;;;4994199;28;20071;-49
2023/05/16 12:11:43;;;;;;;3.90;0.60;;;14.10;99.90;;;;;;4993834;28;20089;-50
2023/05/16 12:14:11;;;;;;;2.05;0.52;;;14.20;99.90;;;;;;4993858;28;20026;-49
2023/05/16 12:16:41;;;;;;;2.10;0.43;;;14.30;99.90;;;;;;4993833;28;20467;-49
2023/05/16 12:19:08;;;;;;;3.45;1.00;;;14.40;99.90;;;;;;4993841;28;20038;-51
2023/05/16 12:21:34;;;;;;;2.13;0.55;;;14.60;99.90;;;;;;4993869;28;20026;-50
2023/05/16 12:24:01;;;;;;;1.80;0.40;;;14.70;99.90;;;;;;4994223;28;20459;-49
2023/05/16 12:26:29;;;;;;;2.72;0.52;;;14.80;99.90;;;;;;4993923;28;20399;-51
2023/05/16 12:29:04;;;;;;;0.30;0.20;;;14.90;99.90;;;;;;4992889;28;20030;-51
2023/05/16 12:31:31;;;;;;;3.05;0.77;;;15.10;98.40;;;;;;4993496;28;20070;-52
2023/05/16 12:33:57;;;;;;;4.57;0.40;;;15.20;97.20;;;;;;4993569;28;20038;-49
2023/05/16 12:36:25;;;;;;;1.98;0.47;;;15.10;96.60;;;;;;4993601;28;20122;-50
2023/05/16 12:38:52;;;;;;;1.33;0.32;;;15.10;97.40;;;;;;4993782;28;20376;-50
2023/05/16 12:41:21;;;;;;;1.90;0.50;;;15.10;96.00;;;;;;4993500;28;20387;-51
2023/05/16 12:43:50;;;;;;;2.38;0.55;;;15.30;95.90;;;;;;4993423;28;20026;-50
2023/05/16 12:46:18;;;;;;;1.45;0.52;;;15.20;96.00;;;;;;4993624;28;20053;-50
2023/05/16 12:48:46;;;;;;;0.98;0.30;;;15.50;95.70;;;;;;4993874;28;20060;-51
2023/05/16 12:51:13;;;;;;;2.03;0.95;;;15.50;96.10;;;;;;4993272;28;20497;-53
2023/05/16 12:53:46;;;;;;;1.05;0.40;;;15.50;96.00;;;;;;4993305;28;20168;-50